createdAt,value
2023-05-08T00:01:25.621Z,12.77
2023-05-08T00:03:27.989Z,11.50
2023-05-08T00:05:30.254Z,13.65
2023-05-08T00:07:32.502Z,12.52
2023-05-08T00:09:34.674Z,12.18
2023-05-08T00:11:36.847Z,11.10
2023-05-08T00:13:40.242Z,11.98
2023-05-08T00:15:42.381Z,12.15
2023-05-08T00:17:44.619Z,12.20
2023-05-08T00:19:46.858Z,14.60
2023-05-08T00:21:49.085Z,14.88
2023-05-08T00:23:51.240Z,13.50
2023-05-08T00:25:53.377Z,13.73
2023-05-08T00:27:55.747Z,14.18
2023-05-08T00:29:58.348Z,13.48
2023-05-08T00:32:00.725Z,12.05
2023-05-08T00:34:02.969Z,11.40
2023-05-08T00:36:05.753Z,13.15
2023-05-08T00:38:07.885Z,13.35
2023-05-08T00:40:10.978Z,14.50
2023-05-08T00:42:13.277Z,13.00
2023-05-08T00:44:15.430Z,12.85
2023-05-08T00:46:18.072Z,13.23
2023-05-08T00:48:20.255Z,14.25
2023-05-08T00:50:22.500Z,13.27
2023-05-08T00:52:24.672Z,14.73
2023-05-08T00:54:27.415Z,16.30
2023-05-08T00:58:33.612Z,14.73
2023-05-08T01:00:35.883Z,13.52
2023-05-08T01:02:38.130Z,13.88
2023-05-08T01:04:41.364Z,17.40
2023-05-08T01:06:43.561Z,14.93
2023-05-08T01:08:46.216Z,13.88
2023-05-08T01:12:50.544Z,13.38
2023-05-08T01:15:22.179Z,15.52
2023-05-08T01:17:31.793Z,15.50
2023-05-08T01:19:52.337Z,13.13
2023-05-08T01:22:03.401Z,13.07
2023-05-08T01:24:24.429Z,17.17
2023-05-08T01:26:29.611Z,16.63
2023-05-08T01:28:46.996Z,14.60
2023-05-08T01:31:08.047Z,13.35
2023-05-08T01:33:28.896Z,14.90
2023-05-08T01:35:33.576Z,15.05
2023-05-08T01:37:46.015Z,17.85
2023-05-08T01:39:53.295Z,16.17
2023-05-08T01:41:59.729Z,15.93
2023-05-08T01:44:10.892Z,14.75
2023-05-08T01:46:19.541Z,17.95
2023-05-08T01:48:25.200Z,17.25
2023-05-08T01:50:31.804Z,18.83
2023-05-08T01:52:40.793Z,16.77
2023-05-08T01:54:49.588Z,16.23
2023-05-08T01:56:53.800Z,18.67
2023-05-08T01:58:57.346Z,15.05
2023-05-08T02:01:00.416Z,17.60
2023-05-08T02:03:03.377Z,24.88
2023-05-08T02:05:07.058Z,16.33
2023-05-08T02:07:09.236Z,15.43
2023-05-08T02:09:11.619Z,15.68
2023-05-08T02:11:15.570Z,17.33
2023-05-08T02:13:20.164Z,18.50
2023-05-08T02:15:23.090Z,18.42
2023-05-08T02:19:27.942Z,15.07
2023-05-08T02:23:33.762Z,15.27
2023-05-08T02:25:36.306Z,15.30
2023-05-08T02:27:39.006Z,16.23
2023-05-08T02:29:41.209Z,16.17
2023-05-08T02:31:43.871Z,15.82
2023-05-08T02:35:49.153Z,18.98
2023-05-08T02:37:53.127Z,15.98
2023-05-08T02:39:57.210Z,12.82
2023-05-08T02:41:59.623Z,16.35
2023-05-08T02:44:02.447Z,15.25
2023-05-08T02:48:14.065Z,15.38
2023-05-08T02:50:16.234Z,14.18
2023-05-08T02:52:38.718Z,16.73
2023-05-08T02:54:46.090Z,13.60
2023-05-08T02:56:54.584Z,15.95
2023-05-08T02:59:00.631Z,15.05
2023-05-08T03:01:08.003Z,13.43
2023-05-08T03:03:14.349Z,12.90
2023-05-08T03:05:20.865Z,14.13
2023-05-08T03:07:26.135Z,15.00
2023-05-08T03:09:32.773Z,13.85
2023-05-08T03:11:39.633Z,14.15
2023-05-08T03:13:42.768Z,14.65
2023-05-08T03:15:51.780Z,16.23
2023-05-08T03:17:55.867Z,14.25
2023-05-08T03:20:00.698Z,13.93
2023-05-08T03:22:03.839Z,19.90
2023-05-08T03:24:07.234Z,15.27
2023-05-08T03:26:09.434Z,13.32
2023-05-08T03:28:14.112Z,15.30
2023-05-08T03:30:17.280Z,14.95
2023-05-08T03:32:19.598Z,12.75
2023-05-08T03:34:22.553Z,12.85
2023-05-08T03:36:27.040Z,12.70
2023-05-08T03:38:29.352Z,15.95
2023-05-08T03:40:31.634Z,15.88
2023-05-08T03:42:33.992Z,12.63
2023-05-08T03:44:36.445Z,13.02
2023-05-08T03:46:39.033Z,12.93
2023-05-08T03:48:41.951Z,13.50
2023-05-08T03:52:46.340Z,13.07
2023-05-08T03:54:48.567Z,16.00
2023-05-08T03:56:51.012Z,13.68
2023-05-08T03:59:16.953Z,13.05
2023-05-08T04:01:31.341Z,13.63
2023-05-08T04:03:53.887Z,12.75
2023-05-08T04:06:09.387Z,12.27
2023-05-08T04:08:20.554Z,12.32
2023-05-08T04:10:25.725Z,11.85
2023-05-08T04:12:30.696Z,14.43
2023-05-08T04:14:36.256Z,13.30
2023-05-08T04:16:40.472Z,11.48
2023-05-08T04:18:46.837Z,11.68
2023-05-08T04:20:50.281Z,11.63
2023-05-08T04:22:54.224Z,12.07
2023-05-08T04:24:58.738Z,13.00
2023-05-08T04:27:01.193Z,10.98
2023-05-08T04:29:03.652Z,11.00
2023-05-08T04:31:06.028Z,12.38
2023-05-08T04:33:08.732Z,10.30
2023-05-08T04:37:24.863Z,10.68
2023-05-08T04:39:27.040Z,13.18
2023-05-08T04:41:29.296Z,11.50
2023-05-08T04:43:31.710Z,12.77
2023-05-08T04:45:33.880Z,11.30
2023-05-08T04:47:36.152Z,14.18
2023-05-08T04:49:38.350Z,11.15
2023-05-08T04:51:40.529Z,12.43
2023-05-08T04:53:42.662Z,11.30
2023-05-08T04:55:44.830Z,12.07
2023-05-08T04:57:47.091Z,13.45
2023-05-08T04:59:49.256Z,11.65
2023-05-08T05:01:51.541Z,12.85
2023-05-08T05:03:53.819Z,12.77
2023-05-08T05:05:59.794Z,12.25
2023-05-08T05:08:02.040Z,12.27
2023-05-08T05:10:04.347Z,12.63
2023-05-08T05:12:07.319Z,14.30
2023-05-08T05:14:09.465Z,12.35
2023-05-08T05:16:11.689Z,11.90
2023-05-08T05:18:13.870Z,11.23
2023-05-08T05:20:16.401Z,12.10
2023-05-08T05:22:18.576Z,13.38
2023-05-08T05:24:20.818Z,13.52
2023-05-08T05:26:23.311Z,13.32
2023-05-08T05:28:26.116Z,12.77
2023-05-08T05:32:30.462Z,17.35
2023-05-08T05:34:32.644Z,16.25
2023-05-08T05:36:34.822Z,11.95
2023-05-08T05:38:37.005Z,15.57
2023-05-08T05:40:39.129Z,11.35
2023-05-08T05:42:41.337Z,13.20
2023-05-08T05:44:43.510Z,14.02
2023-05-08T05:46:45.698Z,16.90
2023-05-08T05:48:47.965Z,13.07
2023-05-08T05:50:50.169Z,11.18
2023-05-08T05:52:52.344Z,11.75
2023-05-08T05:54:54.556Z,12.95
2023-05-08T05:56:56.891Z,13.05
2023-05-08T05:58:59.368Z,11.40
2023-05-08T06:01:01.541Z,11.93
2023-05-08T06:03:03.976Z,12.70
2023-05-08T06:05:06.400Z,14.00
2023-05-08T06:07:08.568Z,14.70
2023-05-08T06:09:10.776Z,12.38
2023-05-08T06:11:13.040Z,11.25
2023-05-08T06:13:15.383Z,12.88
2023-05-08T06:15:17.555Z,12.98
2023-05-08T06:17:19.722Z,13.05
2023-05-08T06:19:24.170Z,16.83
2023-05-08T06:21:26.750Z,14.98
2023-05-08T06:23:28.928Z,15.70
2023-05-08T06:25:31.162Z,11.77
2023-05-08T06:27:36.206Z,14.20
2023-05-08T06:29:38.408Z,13.77
2023-05-08T06:31:40.569Z,13.82
2023-05-08T06:33:42.738Z,15.15
2023-05-08T06:35:48.392Z,13.68
2023-05-08T06:37:50.830Z,21.08
2023-05-08T06:40:03.890Z,13.90
2023-05-08T06:42:13.566Z,18.42
2023-05-08T06:44:16.256Z,15.50
2023-05-08T06:48:20.900Z,12.95
2023-05-08T06:50:23.145Z,13.70
2023-05-08T06:52:25.818Z,12.82
2023-05-08T06:54:28.179Z,12.65
2023-05-08T06:56:30.658Z,13.48
2023-05-08T06:58:32.920Z,12.63
2023-05-08T07:00:35.117Z,12.77
2023-05-08T07:02:37.294Z,15.05
2023-05-08T07:04:39.597Z,15.20
2023-05-08T07:06:41.835Z,19.13
2023-05-08T07:08:44.043Z,22.33
2023-05-08T07:10:46.231Z,24.42
2023-05-08T07:12:48.563Z,15.32
2023-05-08T07:14:51.188Z,21.85
2023-05-08T07:16:53.352Z,15.15
2023-05-08T07:18:55.561Z,14.73
2023-05-08T07:20:57.751Z,13.82
2023-05-08T07:22:59.902Z,12.88
2023-05-08T07:25:02.143Z,16.20
2023-05-08T07:27:04.404Z,13.27
2023-05-08T07:29:06.602Z,12.35
2023-05-08T07:31:08.916Z,12.90
2023-05-08T07:33:11.465Z,11.75
2023-05-08T07:35:13.808Z,11.63
2023-05-08T07:37:16.231Z,14.85
2023-05-08T07:39:19.240Z,11.45
2023-05-08T07:41:26.714Z,16.95
2023-05-08T07:43:32.539Z,20.40
2023-05-08T07:45:36.515Z,17.73
2023-05-08T07:47:39.349Z,13.77
2023-05-08T07:49:42.129Z,11.90
2023-05-08T07:53:48.710Z,13.98
2023-05-08T07:55:50.918Z,12.80
2023-05-08T07:57:53.141Z,15.80
2023-05-08T07:59:55.298Z,12.18
2023-05-08T08:01:57.561Z,12.10
2023-05-08T08:03:59.809Z,12.80
2023-05-08T08:06:02.018Z,13.98
2023-05-08T08:08:04.401Z,15.23
2023-05-08T08:10:06.906Z,13.07
2023-05-08T08:12:09.340Z,12.52
2023-05-08T08:14:11.592Z,11.95
2023-05-08T08:16:13.733Z,13.23
2023-05-08T08:18:15.991Z,12.68
2023-05-08T08:20:18.317Z,12.32
2023-05-08T08:22:20.548Z,11.40
2023-05-08T08:24:23.693Z,12.57
2023-05-08T08:26:26.018Z,12.93
2023-05-08T08:28:28.207Z,13.55
2023-05-08T08:30:30.583Z,13.45
2023-05-08T08:32:32.732Z,13.27
2023-05-08T08:34:34.973Z,12.73
2023-05-08T08:36:37.168Z,13.27
2023-05-08T08:38:39.355Z,13.80
2023-05-08T08:40:41.964Z,14.77
2023-05-08T08:42:44.269Z,16.00
2023-05-08T08:44:52.680Z,17.55
2023-05-08T08:46:59.316Z,17.73
2023-05-08T08:49:03.975Z,19.27
2023-05-08T08:51:08.231Z,15.68
2023-05-08T08:53:25.278Z,17.00
2023-05-08T08:55:28.483Z,19.75
2023-05-08T08:57:33.934Z,16.92
2023-05-08T08:59:38.877Z,18.52
2023-05-08T09:01:41.968Z,18.77
2023-05-08T09:03:44.967Z,22.38
2023-05-08T09:05:51.883Z,31.75
2023-05-08T09:07:57.098Z,21.65
2023-05-08T09:10:00.183Z,20.40
2023-05-08T09:12:02.534Z,20.85
2023-05-08T09:14:04.807Z,19.40
2023-05-08T09:16:07.170Z,20.35
2023-05-08T09:18:09.629Z,17.50
2023-05-08T09:20:12.442Z,24.42
2023-05-08T09:22:14.853Z,21.13
2023-05-08T09:24:17.096Z,18.05
2023-05-08T09:26:38.512Z,19.13
2023-05-08T09:28:40.903Z,17.52
2023-05-08T09:30:53.396Z,15.40
2023-05-08T09:33:02.804Z,17.05
2023-05-08T09:35:05.985Z,19.60
2023-05-08T09:37:08.196Z,18.40
2023-05-08T09:39:12.703Z,18.75
2023-05-08T09:41:16.608Z,18.48
2023-05-08T09:43:18.792Z,18.92
2023-05-08T09:45:28.299Z,20.35
2023-05-08T09:47:31.187Z,17.00
2023-05-08T09:49:33.536Z,17.05
2023-05-08T09:51:35.745Z,19.00
2023-05-08T09:53:38.033Z,18.40
2023-05-08T09:55:49.161Z,21.83
2023-05-08T09:57:54.236Z,18.70
2023-05-08T10:00:03.284Z,16.45
2023-05-08T10:02:11.716Z,17.48
2023-05-08T10:04:14.031Z,17.75
2023-05-08T10:06:16.970Z,17.58
2023-05-08T10:10:28.077Z,18.55
2023-05-08T10:12:30.702Z,19.33
2023-05-08T10:14:32.836Z,21.27
2023-05-08T10:16:46.518Z,17.45
2023-05-08T10:18:49.526Z,19.45
2023-05-08T10:20:52.929Z,17.52
2023-05-08T10:22:56.798Z,19.73
2023-05-08T10:24:59.862Z,16.25
2023-05-08T10:27:07.749Z,16.25
2023-05-08T10:29:14.350Z,17.92
2023-05-08T10:31:18.836Z,20.05
2023-05-08T10:33:21.696Z,17.10
2023-05-08T10:35:23.941Z,18.10
2023-05-08T10:37:26.238Z,18.42
2023-05-08T10:39:29.653Z,18.50
2023-05-08T10:41:31.905Z,17.67
2023-05-08T10:43:34.300Z,18.63
2023-05-08T10:45:36.937Z,18.77
2023-05-08T10:47:46.320Z,19.83
2023-05-08T10:50:01.393Z,17.55
2023-05-08T10:52:12.889Z,17.90
2023-05-08T10:54:21.693Z,21.83
2023-05-08T10:56:30.046Z,22.08
2023-05-08T10:58:33.743Z,21.05
2023-05-08T11:00:54.081Z,21.83
2023-05-08T11:03:08.545Z,18.35
2023-05-08T11:05:17.955Z,20.45
2023-05-08T11:07:20.140Z,20.48
2023-05-08T11:09:23.458Z,18.85
2023-05-08T11:11:31.462Z,18.38
2023-05-08T11:13:37.812Z,20.67
2023-05-08T11:15:41.118Z,18.92
2023-05-08T11:17:46.736Z,20.17
2023-05-08T11:19:59.531Z,19.05
2023-05-08T11:22:20.177Z,18.70
2023-05-08T11:24:33.291Z,18.33
2023-05-08T11:28:56.754Z,20.80
2023-05-08T11:31:02.965Z,19.88
2023-05-08T11:33:05.512Z,19.27
2023-05-08T11:37:24.211Z,18.67
2023-05-08T11:41:28.582Z,18.33
2023-05-08T11:43:33.631Z,18.65
2023-05-08T11:45:38.975Z,18.90
2023-05-08T11:47:42.455Z,17.83
2023-05-08T11:49:44.773Z,19.40
2023-05-08T11:51:47.700Z,20.27
2023-05-08T11:53:49.855Z,19.27
2023-05-08T11:55:55.176Z,19.42
2023-05-08T11:57:57.391Z,18.85
2023-05-08T12:00:00.574Z,19.73
2023-05-08T12:02:08.725Z,18.45
2023-05-08T12:04:12.848Z,18.75
2023-05-08T12:06:15.403Z,19.90
2023-05-08T12:08:18.137Z,19.17
2023-05-08T12:12:22.387Z,20.23
2023-05-08T12:14:24.715Z,20.52
2023-05-08T12:16:26.960Z,18.45
2023-05-08T12:18:30.840Z,18.75
2023-05-08T12:20:33.908Z,17.70
2023-05-08T12:22:36.219Z,17.30
2023-05-08T12:24:39.564Z,17.58
2023-05-08T12:26:41.812Z,18.58
2023-05-08T13:08:58.333Z,21.50
2023-05-08T13:11:01.141Z,21.45
2023-05-08T13:13:03.387Z,21.10
2023-05-08T13:15:06.244Z,22.00
2023-05-08T13:19:11.056Z,22.70
2023-05-08T13:21:13.274Z,25.33
2023-05-08T13:23:15.654Z,25.05
2023-05-08T13:25:17.871Z,22.45
2023-05-08T13:27:20.042Z,26.30
2023-05-08T13:29:22.210Z,26.25
2023-05-08T13:31:24.752Z,30.60
2023-05-08T13:33:26.928Z,23.20
2023-05-08T13:35:29.163Z,23.52
2023-05-08T13:37:31.332Z,25.30
2023-05-08T13:39:37.231Z,21.02
2023-05-08T13:41:39.413Z,22.13
2023-05-08T13:43:42.437Z,21.35
2023-05-08T13:45:44.662Z,23.05
2023-05-08T13:47:47.572Z,20.67
2023-05-08T13:49:50.332Z,20.23
2023-05-08T13:53:59.169Z,20.77
2023-05-08T13:56:01.831Z,21.33
2023-05-08T13:58:03.987Z,19.92
2023-05-08T14:00:07.119Z,20.40
2023-05-08T14:02:09.364Z,20.88
2023-05-08T14:04:11.842Z,19.52
2023-05-08T14:06:14.254Z,19.60
2023-05-08T14:08:16.419Z,26.00
2023-05-08T14:10:18.591Z,24.73
2023-05-08T14:12:20.732Z,20.50
2023-05-08T14:14:23.007Z,20.10
2023-05-08T14:16:25.370Z,19.25
2023-05-08T14:18:27.601Z,20.10
2023-05-08T14:20:29.803Z,19.02
2023-05-08T14:22:31.975Z,19.92
2023-05-08T14:24:34.306Z,17.90
2023-05-08T14:26:36.449Z,16.52
2023-05-08T14:28:38.722Z,16.95
2023-05-08T14:30:41.254Z,16.90
2023-05-08T14:32:43.621Z,17.40
2023-05-08T14:34:45.923Z,19.13
2023-05-08T14:36:48.137Z,17.13
2023-05-08T14:38:50.442Z,16.45
2023-05-08T14:40:54.394Z,17.75
2023-05-08T14:42:56.578Z,17.13
2023-05-08T14:44:58.747Z,16.92
2023-05-08T14:47:01.000Z,17.83
2023-05-08T14:49:03.172Z,19.05
2023-05-08T14:51:05.488Z,15.63
2023-05-08T14:53:07.867Z,15.60
2023-05-08T14:55:10.607Z,16.45
2023-05-08T14:57:13.122Z,15.40
2023-05-08T14:59:15.365Z,16.13
2023-05-08T15:01:18.002Z,15.65
2023-05-08T15:05:22.696Z,14.80
2023-05-08T15:07:25.109Z,14.65
2023-05-08T15:09:27.327Z,15.18
2023-05-08T15:11:29.539Z,14.63
2023-05-08T15:13:31.847Z,13.90
2023-05-08T15:15:34.228Z,14.57
2023-05-08T15:17:36.715Z,15.63
2023-05-08T15:19:38.915Z,16.60
2023-05-08T15:21:41.083Z,16.30
2023-05-08T15:23:43.272Z,14.18
2023-05-08T15:25:45.399Z,14.80
2023-05-08T15:27:52.703Z,15.07
2023-05-08T15:29:55.577Z,16.52
2023-05-08T15:31:57.858Z,14.30
2023-05-08T15:34:00.111Z,14.40
2023-05-08T15:36:02.279Z,13.98
2023-05-08T15:38:07.096Z,15.02
2023-05-08T15:40:09.497Z,15.25
2023-05-08T15:42:11.703Z,13.68
2023-05-08T15:44:14.220Z,16.33
2023-05-08T15:46:16.608Z,14.73
2023-05-08T15:48:18.890Z,13.95
2023-05-08T15:50:22.256Z,19.58
2023-05-08T15:52:24.500Z,18.77
2023-05-08T15:54:26.699Z,18.55
2023-05-08T15:56:28.863Z,20.42
2023-05-08T15:58:31.058Z,17.17
2023-05-08T16:00:43.830Z,16.25
2023-05-08T16:02:47.723Z,19.25
2023-05-08T16:06:52.053Z,18.67
2023-05-08T16:08:54.319Z,19.52
2023-05-08T16:10:56.521Z,16.38
2023-05-08T16:12:58.727Z,20.20
2023-05-08T16:15:00.973Z,17.00
2023-05-08T16:17:03.386Z,16.88
2023-05-08T16:19:05.568Z,16.48
2023-05-08T16:21:10.826Z,16.05
2023-05-08T16:23:14.779Z,15.93
2023-05-08T16:25:16.936Z,17.10
2023-05-08T16:27:19.148Z,16.75
2023-05-08T16:29:21.318Z,17.60
2023-05-08T16:31:23.552Z,17.67
2023-05-08T16:33:25.777Z,18.73
2023-05-08T16:35:29.475Z,15.68
2023-05-08T16:37:31.676Z,17.98
2023-05-08T16:39:33.812Z,17.02
2023-05-08T16:41:35.987Z,17.00
2023-05-08T16:43:38.199Z,16.95
2023-05-08T16:45:42.182Z,16.02
2023-05-08T16:47:44.458Z,16.10
2023-05-08T16:49:46.708Z,16.48
2023-05-08T16:51:48.877Z,17.02
2023-05-08T16:53:51.008Z,16.67
2023-05-08T16:55:53.423Z,15.98
2023-05-08T16:57:55.600Z,16.27
2023-05-08T16:59:57.756Z,16.42
2023-05-08T17:01:59.950Z,16.63
2023-05-08T17:04:02.177Z,20.23
2023-05-08T17:06:07.823Z,17.02
2023-05-08T17:08:11.756Z,15.98
2023-05-08T17:10:14.026Z,16.83
2023-05-08T17:12:16.226Z,16.23
2023-05-08T17:14:18.795Z,17.17
2023-05-08T17:16:20.997Z,16.88
2023-05-08T17:18:23.171Z,16.10
2023-05-08T17:20:25.339Z,17.08
2023-05-08T17:22:27.505Z,16.98
2023-05-08T17:24:32.926Z,16.15
2023-05-08T17:26:35.124Z,21.25
2023-05-08T17:28:37.328Z,17.42
2023-05-08T17:30:39.604Z,20.48
2023-05-08T17:32:41.820Z,18.90
2023-05-08T17:34:44.063Z,16.67
2023-05-08T17:36:46.314Z,16.70
2023-05-08T17:38:50.161Z,17.15
2023-05-08T17:40:52.345Z,17.73
2023-05-08T17:42:54.492Z,17.48
2023-05-08T17:44:56.638Z,19.75
2023-05-08T17:46:58.820Z,17.25
2023-05-08T17:49:00.938Z,17.35
2023-05-08T17:51:03.645Z,18.42
2023-05-08T17:55:08.248Z,17.73
2023-05-08T17:57:10.456Z,18.55
2023-05-08T17:59:12.654Z,17.27
2023-05-08T18:01:15.026Z,18.40
2023-05-08T18:03:17.581Z,18.05
2023-05-08T18:05:19.920Z,18.05
2023-05-08T18:07:22.065Z,18.77
2023-05-08T18:09:24.211Z,18.55
2023-05-08T18:11:26.840Z,18.15
2023-05-08T18:13:29.074Z,19.42
2023-05-08T18:15:31.324Z,21.10
2023-05-08T18:17:33.581Z,20.33
2023-05-08T18:19:35.838Z,19.02
2023-05-08T18:21:38.180Z,20.77
2023-05-08T18:23:41.421Z,21.02
2023-05-08T18:25:43.794Z,19.00
2023-05-08T18:27:48.615Z,20.92
2023-05-08T18:29:50.792Z,21.13
2023-05-08T18:31:52.988Z,22.25
2023-05-08T18:33:55.219Z,20.13
2023-05-08T18:35:57.369Z,21.58
2023-05-08T18:37:59.591Z,20.50
2023-05-08T18:40:01.792Z,20.83
2023-05-08T18:42:04.016Z,21.92
2023-05-08T18:44:06.252Z,19.90
2023-05-08T18:46:09.413Z,23.52
2023-05-08T18:48:11.814Z,19.80
2023-05-08T18:50:14.089Z,19.80
2023-05-08T18:52:16.381Z,21.85
2023-05-08T18:54:18.601Z,21.10
2023-05-08T18:56:21.157Z,19.17
2023-05-08T18:58:23.389Z,22.00
2023-05-08T19:00:25.583Z,21.48
2023-05-08T19:02:28.110Z,22.83
2023-05-08T19:04:30.436Z,20.08
2023-05-08T19:06:32.830Z,19.88
2023-05-08T19:08:35.003Z,20.85
2023-05-08T19:10:37.161Z,20.38
2023-05-08T19:12:39.694Z,22.38
2023-05-08T19:14:41.893Z,22.90
2023-05-08T19:16:44.074Z,20.60
2023-05-08T19:18:46.207Z,23.65
2023-05-08T19:20:48.392Z,21.33
2023-05-08T19:22:50.594Z,20.27
2023-05-08T19:24:53.023Z,21.25
2023-05-08T19:26:55.646Z,21.55
2023-05-08T19:28:57.801Z,23.50
2023-05-08T19:31:00.030Z,21.35
2023-05-08T19:33:02.151Z,21.88
2023-05-08T19:35:04.495Z,21.75
2023-05-08T19:37:06.706Z,20.77
2023-05-08T19:39:09.224Z,24.27
2023-05-08T19:41:14.619Z,22.20
2023-05-08T19:43:16.748Z,21.02
2023-05-08T19:45:19.112Z,22.50
2023-05-08T19:47:21.431Z,21.65
2023-05-08T19:49:24.355Z,20.95
2023-05-08T19:51:26.531Z,23.17
2023-05-08T19:53:28.663Z,22.33
2023-05-08T19:55:31.076Z,24.23
2023-05-08T19:57:33.242Z,20.83
2023-05-08T19:59:35.445Z,26.92
2023-05-08T20:01:37.784Z,21.38
2023-05-08T20:03:40.143Z,20.65
2023-05-08T20:05:42.313Z,22.13
2023-05-08T20:07:44.469Z,21.27
2023-05-08T20:09:46.804Z,20.77
2023-05-08T20:11:49.716Z,23.52
2023-05-08T20:13:51.894Z,21.23
2023-05-08T20:15:54.243Z,22.00
2023-05-08T20:17:56.479Z,25.55
2023-05-08T20:19:58.760Z,21.77
2023-05-08T20:22:01.038Z,21.13
2023-05-08T20:24:03.367Z,23.88
2023-05-08T20:26:07.444Z,22.33
2023-05-08T20:28:09.686Z,24.92
2023-05-08T20:30:12.394Z,24.58
2023-05-08T20:32:16.450Z,24.75
2023-05-08T20:34:21.226Z,22.58
2023-05-08T20:36:24.492Z,21.98
2023-05-08T20:38:26.772Z,22.38
2023-05-08T20:40:28.987Z,23.77
2023-05-08T20:42:31.242Z,22.75
2023-05-08T20:44:33.408Z,20.55
2023-05-08T20:46:35.698Z,25.13
2023-05-08T20:48:38.473Z,21.33
2023-05-08T20:50:40.716Z,23.08
2023-05-08T20:52:43.162Z,21.67
2023-05-08T20:54:47.178Z,23.88
2023-05-08T20:56:49.366Z,21.42
2023-05-08T20:58:51.572Z,22.95
2023-05-08T21:00:53.782Z,22.23
2023-05-08T21:02:56.227Z,26.58
2023-05-08T21:04:58.448Z,22.73
2023-05-08T21:07:00.917Z,23.23
2023-05-08T21:09:04.583Z,23.75
2023-05-08T21:11:08.716Z,23.45
2023-05-08T21:13:11.017Z,24.52
2023-05-08T21:15:14.873Z,25.15
2023-05-08T21:17:17.303Z,23.67
2023-05-08T21:19:19.453Z,22.42
2023-05-08T21:21:21.626Z,24.15
2023-05-08T21:23:23.888Z,26.92
2023-05-08T21:25:26.146Z,28.05
2023-05-08T21:27:28.323Z,28.67
2023-05-08T21:29:30.471Z,24.27
2023-05-08T21:31:35.460Z,25.67
2023-05-08T21:33:37.766Z,24.70
2023-05-08T21:35:43.445Z,24.70
2023-05-08T21:37:45.592Z,25.10
2023-05-08T21:39:47.744Z,24.50
2023-05-08T21:41:49.907Z,24.17
2023-05-08T21:43:52.058Z,24.08
2023-05-08T21:45:54.190Z,25.38
2023-05-08T21:47:56.390Z,23.83
2023-05-08T21:49:58.623Z,24.20
2023-05-08T21:52:00.784Z,23.58
2023-05-08T21:54:02.979Z,24.02
2023-05-08T21:56:05.299Z,22.02
2023-05-08T21:58:07.457Z,24.05
2023-05-08T22:00:09.929Z,24.80
2023-05-08T22:02:12.327Z,20.77
2023-05-08T22:04:14.572Z,20.65
2023-05-08T22:06:16.730Z,21.45
2023-05-08T22:08:18.855Z,21.77
2023-05-08T22:10:22.033Z,23.67
2023-05-08T22:12:24.500Z,20.17
2023-05-08T22:14:27.191Z,23.50
2023-05-08T22:18:31.409Z,21.40
2023-05-08T22:20:34.133Z,21.70
2023-05-08T22:24:38.367Z,23.23
2023-05-08T22:26:40.541Z,21.50
2023-05-08T22:28:42.712Z,21.23
2023-05-08T22:30:44.848Z,22.70
2023-05-08T22:32:52.801Z,22.58
2023-05-08T22:34:55.855Z,21.60
2023-05-08T22:36:58.033Z,19.88
2023-05-08T22:39:01.106Z,22.67
2023-05-08T22:41:05.788Z,21.23
2023-05-08T22:43:08.011Z,20.77
2023-05-08T22:45:10.760Z,21.08
2023-05-08T22:49:15.121Z,19.83
2023-05-08T22:51:17.286Z,19.50
2023-05-08T22:53:19.477Z,19.92
2023-05-08T22:55:21.700Z,20.52
2023-05-08T22:57:23.817Z,21.13
2023-05-08T22:59:26.006Z,20.45
2023-05-08T23:01:28.188Z,20.90
2023-05-08T23:03:30.941Z,18.55
2023-05-08T23:07:35.132Z,19.67
2023-05-08T23:09:37.290Z,18.50
